sensor_id;sensor_type;location;lat;lon;timestamp;pressure;altitude;pressure_sealevel;temperature;humidity
8294;BME280;4185;41.506;24.938;2023-04-01T00:01:40;92902.75;;;6.17;78.40
8294;BME280;4185;41.506;24.938;2023-04-01T00:04:07;92906.66;;;6.16;78.53
8294;BME280;4185;41.506;24.938;2023-04-01T00:06:33;92901.81;;;6.21;78.62
8294;BME280;4185;41.506;24.938;2023-04-01T00:09:00;92898.25;;;6.29;78.60
8294;BME280;4185;41.506;24.938;2023-04-01T00:11:28;92895.28;;;6.27;78.57
8294;BME280;4185;41.506;24.938;2023-04-01T00:13:55;92888.78;;;6.19;78.38
8294;BME280;4185;41.506;24.938;2023-04-01T00:16:22;92887.31;;;6.18;79.48
8294;BME280;4185;41.506;24.938;2023-04-01T00:18:50;92874.31;;;6.16;79.36
8294;BME280;4185;41.506;24.938;2023-04-01T00:21:18;92884.06;;;6.14;79.67
8294;BME280;4185;41.506;24.938;2023-04-01T00:23:45;92875.06;;;6.17;79.65
8294;BME280;4185;41.506;24.938;2023-04-01T00:26:12;92868.16;;;6.16;79.21
8294;BME280;4185;41.506;24.938;2023-04-01T00:28:41;92859.81;;;6.14;79.04
8294;BME280;4185;41.506;24.938;2023-04-01T00:31:08;92866.22;;;6.16;79.05
8294;BME280;4185;41.506;24.938;2023-04-01T00:33:35;92868.72;;;6.20;79.25
8294;BME280;4185;41.506;24.938;2023-04-01T00:36:07;92864.06;;;6.21;79.73
8294;BME280;4185;41.506;24.938;2023-04-01T00:38:35;92866.34;;;6.07;80.38
8294;BME280;4185;41.506;24.938;2023-04-01T00:41:03;92863.44;;;6.11;79.40
8294;BME280;4185;41.506;24.938;2023-04-01T00:43:30;92861.03;;;6.13;80.04
8294;BME280;4185;41.506;24.938;2023-04-01T00:45:59;92857.38;;;6.16;79.52
8294;BME280;4185;41.506;24.938;2023-04-01T00:48:28;92845.53;;;6.08;79.85
8294;BME280;4185;41.506;24.938;2023-04-01T00:50:59;92839.13;;;6.05;79.25
8294;BME280;4185;41.506;24.938;2023-04-01T00:53:30;92843.50;;;6.03;80.06
8294;BME280;4185;41.506;24.938;2023-04-01T00:56:01;92851.31;;;6.01;79.83
8294;BME280;4185;41.506;24.938;2023-04-01T00:58:32;92858.22;;;6.02;80.07
8294;BME280;4185;41.506;24.938;2023-04-01T01:01:06;92854.75;;;6.01;80.75
8294;BME280;4185;41.506;24.938;2023-04-01T01:03:32;92855.25;;;6.00;79.87
8294;BME280;4185;41.506;24.938;2023-04-01T01:06:19;92850.13;;;6.02;80.04
8294;BME280;4185;41.506;24.938;2023-04-01T01:09:06;92847.63;;;5.98;79.99
8294;BME280;4185;41.506;24.938;2023-04-01T01:11:37;92839.88;;;5.86;80.70
8294;BME280;4185;41.506;24.938;2023-04-01T01:14:12;92846.00;;;5.86;80.97
8294;BME280;4185;41.506;24.938;2023-04-01T01:16:47;92834.38;;;5.80;81.08
8294;BME280;4185;41.506;24.938;2023-04-01T01:19:35;92828.72;;;5.78;81.48
8294;BME280;4185;41.506;24.938;2023-04-01T01:22:21;92835.78;;;5.76;82.15
8294;BME280;4185;41.506;24.938;2023-04-01T01:27:42;92834.69;;;5.68;83.17
8294;BME280;4185;41.506;24.938;2023-04-01T01:30:24;92838.19;;;5.74;82.92
8294;BME280;4185;41.506;24.938;2023-04-01T01:33:06;92839.13;;;5.85;82.56
8294;BME280;4185;41.506;24.938;2023-04-01T01:35:38;92829.84;;;5.86;83.48
8294;BME280;4185;41.506;24.938;2023-04-01T01:38:08;92824.91;;;5.85;83.51
8294;BME280;4185;41.506;24.938;2023-04-01T01:40:38;92834.47;;;5.86;83.97
8294;BME280;4185;41.506;24.938;2023-04-01T01:43:09;92838.19;;;5.88;84.47
8294;BME280;4185;41.506;24.938;2023-04-01T01:45:42;92822.75;;;5.89;83.85
8294;BME280;4185;41.506;24.938;2023-04-01T01:48:11;92821.78;;;5.92;83.92
8294;BME280;4185;41.506;24.938;2023-04-01T01:50:40;92820.31;;;5.91;84.07
8294;BME280;4185;41.506;24.938;2023-04-01T01:53:10;92819.09;;;5.92;84.80
8294;BME280;4185;41.506;24.938;2023-04-01T01:55:38;92813.94;;;5.88;84.48
8294;BME280;4185;41.506;24.938;2023-04-01T01:58:09;92814.94;;;5.91;84.31
8294;BME280;4185;41.506;24.938;2023-04-01T02:00:37;92815.88;;;5.88;85.05
8294;BME280;4185;41.506;24.938;2023-04-01T02:03:06;92815.34;;;5.84;84.85
8294;BME280;4185;41.506;24.938;2023-04-01T02:05:32;92798.06;;;5.76;85.05
8294;BME280;4185;41.506;24.938;2023-04-01T02:08:06;92799.53;;;5.77;85.16
8294;BME280;4185;41.506;24.938;2023-04-01T02:10:37;92804.00;;;5.80;86.13
8294;BME280;4185;41.506;24.938;2023-04-01T02:13:11;92800.66;;;5.85;85.90
8294;BME280;4185;41.506;24.938;2023-04-01T02:15:43;92798.00;;;5.90;86.38
8294;BME280;4185;41.506;24.938;2023-04-01T02:18:12;92806.16;;;5.96;86.86
8294;BME280;4185;41.506;24.938;2023-04-01T02:20:40;92798.84;;;5.96;86.71
8294;BME280;4185;41.506;24.938;2023-04-01T02:23:10;92783.41;;;5.97;86.36
8294;BME280;4185;41.506;24.938;2023-04-01T02:25:37;92782.66;;;5.96;85.71
8294;BME280;4185;41.506;24.938;2023-04-01T02:28:06;92784.34;;;5.94;85.80
8294;BME280;4185;41.506;24.938;2023-04-01T02:30:37;92770.59;;;5.92;85.69
8294;BME280;4185;41.506;24.938;2023-04-01T02:33:06;92778.81;;;6.03;86.46
8294;BME280;4185;41.506;24.938;2023-04-01T02:35:33;92775.84;;;6.01;86.30
8294;BME280;4185;41.506;24.938;2023-04-01T02:38:02;92771.94;;;6.02;86.55
8294;BME280;4185;41.506;24.938;2023-04-01T02:40:41;92769.47;;;5.98;86.32
8294;BME280;4185;41.506;24.938;2023-04-01T02:43:07;92767.50;;;5.99;86.45
8294;BME280;4185;41.506;24.938;2023-04-01T02:45:34;92767.75;;;6.01;86.66
8294;BME280;4185;41.506;24.938;2023-04-01T02:48:01;92767.56;;;6.04;87.03
8294;BME280;4185;41.506;24.938;2023-04-01T02:50:28;92764.09;;;6.04;87.38
8294;BME280;4185;41.506;24.938;2023-04-01T02:52:54;92756.41;;;5.91;87.72
8294;BME280;4185;41.506;24.938;2023-04-01T02:55:21;92749.72;;;5.87;87.38
8294;BME280;4185;41.506;24.938;2023-04-01T02:57:49;92752.47;;;5.92;87.12
8294;BME280;4185;41.506;24.938;2023-04-01T03:00:17;92745.81;;;5.88;86.81
8294;BME280;4185;41.506;24.938;2023-04-01T03:02:44;92759.16;;;5.97;87.67
8294;BME280;4185;41.506;24.938;2023-04-01T03:05:10;92754.63;;;6.08;87.49
8294;BME280;4185;41.506;24.938;2023-04-01T03:07:38;92751.03;;;6.17;86.70
8294;BME280;4185;41.506;24.938;2023-04-01T03:10:05;92754.44;;;6.17;87.01
8294;BME280;4185;41.506;24.938;2023-04-01T03:12:32;92753.47;;;6.15;86.68
8294;BME280;4185;41.506;24.938;2023-04-01T03:15:00;92752.72;;;6.14;86.43
8294;BME280;4185;41.506;24.938;2023-04-01T03:17:27;92754.94;;;6.16;85.96
8294;BME280;4185;41.506;24.938;2023-04-01T03:19:54;92748.81;;;6.15;86.59
8294;BME280;4185;41.506;24.938;2023-04-01T03:22:21;92752.22;;;6.16;86.20
8294;BME280;4185;41.506;24.938;2023-04-01T03:24:48;92754.22;;;6.15;85.92
8294;BME280;4185;41.506;24.938;2023-04-01T03:27:15;92750.50;;;6.13;87.46
8294;BME280;4185;41.506;24.938;2023-04-01T03:29:41;92748.06;;;6.15;87.19
8294;BME280;4185;41.506;24.938;2023-04-01T03:32:09;92741.19;;;6.14;87.55
8294;BME280;4185;41.506;24.938;2023-04-01T03:34:36;92741.88;;;6.09;88.31
8294;BME280;4185;41.506;24.938;2023-04-01T03:37:03;92741.66;;;6.12;87.96
8294;BME280;4185;41.506;24.938;2023-04-01T03:39:31;92731.41;;;6.16;87.75
8294;BME280;4185;41.506;24.938;2023-04-01T03:41:57;92736.81;;;6.16;88.03
8294;BME280;4185;41.506;24.938;2023-04-01T03:44:25;92723.94;;;6.06;88.30
8294;BME280;4185;41.506;24.938;2023-04-01T03:46:51;92722.06;;;5.92;88.03
8294;BME280;4185;41.506;24.938;2023-04-01T03:49:20;92721.28;;;5.86;87.65
8294;BME280;4185;41.506;24.938;2023-04-01T03:51:46;92716.44;;;5.90;88.54
8294;BME280;4185;41.506;24.938;2023-04-01T03:54:13;92717.78;;;6.00;87.47
8294;BME280;4185;41.506;24.938;2023-04-01T03:56:40;92717.81;;;6.05;87.28
8294;BME280;4185;41.506;24.938;2023-04-01T03:59:07;92720.06;;;6.07;87.88
8294;BME280;4185;41.506;24.938;2023-04-01T04:01:34;92714.66;;;6.07;87.53
8294;BME280;4185;41.506;24.938;2023-04-01T04:04:01;92712.28;;;6.14;87.13
8294;BME280;4185;41.506;24.938;2023-04-01T04:06:29;92714.00;;;6.17;87.21
8294;BME280;4185;41.506;24.938;2023-04-01T04:08:56;92711.31;;;6.17;86.38
8294;BME280;4185;41.506;24.938;2023-04-01T04:11:23;92706.41;;;6.16;86.66
8294;BME280;4185;41.506;24.938;2023-04-01T04:13:51;92706.59;;;6.12;86.71
8294;BME280;4185;41.506;24.938;2023-04-01T04:16:18;92707.09;;;6.11;86.44
8294;BME280;4185;41.506;24.938;2023-04-01T04:18:45;92707.56;;;6.09;85.97
8294;BME280;4185;41.506;24.938;2023-04-01T04:21:13;92711.00;;;6.10;85.90
8294;BME280;4185;41.506;24.938;2023-04-01T04:23:42;92707.34;;;6.13;86.00
8294;BME280;4185;41.506;24.938;2023-04-01T04:26:11;92704.44;;;6.16;85.84
8294;BME280;4185;41.506;24.938;2023-04-01T04:28:38;92698.59;;;6.18;85.87
8294;BME280;4185;41.506;24.938;2023-04-01T04:31:05;92707.34;;;6.13;86.69
8294;BME280;4185;41.506;24.938;2023-04-01T04:33:33;92715.03;;;6.20;86.41
8294;BME280;4185;41.506;24.938;2023-04-01T04:36:01;92698.59;;;6.18;86.51
8294;BME280;4185;41.506;24.938;2023-04-01T04:38:28;92699.53;;;6.15;87.03
8294;BME280;4185;41.506;24.938;2023-04-01T04:40:56;92693.88;;;6.13;87.47
8294;BME280;4185;41.506;24.938;2023-04-01T04:43:23;92693.59;;;6.11;86.57
8294;BME280;4185;41.506;24.938;2023-04-01T04:45:50;92699.22;;;6.07;87.03
8294;BME280;4185;41.506;24.938;2023-04-01T04:48:17;92702.13;;;6.04;87.21
8294;BME280;4185;41.506;24.938;2023-04-01T04:50:46;92692.56;;;6.03;87.70
8294;BME280;4185;41.506;24.938;2023-04-01T04:53:13;92689.91;;;6.08;87.62
8294;BME280;4185;41.506;24.938;2023-04-01T04:55:43;92692.63;;;6.08;86.90
8294;BME280;4185;41.506;24.938;2023-04-01T04:58:11;92689.91;;;6.08;87.21
8294;BME280;4185;41.506;24.938;2023-04-01T05:00:38;92696.78;;;6.09;87.90
8294;BME280;4185;41.506;24.938;2023-04-01T05:03:05;92700.91;;;6.05;88.33
8294;BME280;4185;41.506;24.938;2023-04-01T05:05:32;92690.91;;;6.11;87.95
8294;BME280;4185;41.506;24.938;2023-04-01T05:07:58;92688.34;;;6.22;88.09
8294;BME280;4185;41.506;24.938;2023-04-01T05:10:25;92677.63;;;6.33;87.27
8294;BME280;4185;41.506;24.938;2023-04-01T05:12:52;92678.66;;;6.41;88.11
8294;BME280;4185;41.506;24.938;2023-04-01T05:15:21;92671.38;;;6.47;87.49
8294;BME280;4185;41.506;24.938;2023-04-01T05:17:47;92677.28;;;6.51;88.32
8294;BME280;4185;41.506;24.938;2023-04-01T05:20:14;92672.16;;;6.53;87.57
8294;BME280;4185;41.506;24.938;2023-04-01T05:22:41;92677.06;;;6.55;87.22
8294;BME280;4185;41.506;24.938;2023-04-01T05:25:09;92669.97;;;6.57;88.11
8294;BME280;4185;41.506;24.938;2023-04-01T05:27:35;92676.84;;;6.58;88.18
8294;BME280;4185;41.506;24.938;2023-04-01T05:30:03;92670.97;;;6.60;87.12
8294;BME280;4185;41.506;24.938;2023-04-01T05:32:32;92672.41;;;6.55;87.74
8294;BME280;4185;41.506;24.938;2023-04-01T05:34:58;92678.81;;;6.58;87.80
8294;BME280;4185;41.506;24.938;2023-04-01T05:37:25;92676.63;;;6.62;88.22
8294;BME280;4185;41.506;24.938;2023-04-01T05:39:52;92670.03;;;6.63;88.18
8294;BME280;4185;41.506;24.938;2023-04-01T05:42:19;92680.34;;;6.64;88.33
8294;BME280;4185;41.506;24.938;2023-04-01T05:44:45;92675.97;;;6.72;88.00
8294;BME280;4185;41.506;24.938;2023-04-01T05:47:12;92664.22;;;6.75;88.55
8294;BME280;4185;41.506;24.938;2023-04-01T05:49:40;92672.88;;;6.85;88.14
8294;BME280;4185;41.506;24.938;2023-04-01T05:52:08;92660.91;;;6.91;87.25
8294;BME280;4185;41.506;24.938;2023-04-01T05:54:34;92662.34;;;6.92;87.69
8294;BME280;4185;41.506;24.938;2023-04-01T05:57:01;92661.66;;;6.97;87.77
8294;BME280;4185;41.506;24.938;2023-04-01T05:59:28;92654.56;;;7.05;87.57
8294;BME280;4185;41.506;24.938;2023-04-01T06:01:56;92643.84;;;7.16;87.11
8294;BME280;4185;41.506;24.938;2023-04-01T06:04:24;92641.91;;;7.22;86.97
8294;BME280;4185;41.506;24.938;2023-04-01T06:06:52;92628.19;;;7.31;87.20
8294;BME280;4185;41.506;24.938;2023-04-01T06:09:25;92629.19;;;7.39;86.07
8294;BME280;4185;41.506;24.938;2023-04-01T06:12:06;92632.69;;;7.46;85.80
8294;BME280;4185;41.506;24.938;2023-04-01T06:14:47;92636.34;;;7.48;85.75
8294;BME280;4185;41.506;24.938;2023-04-01T06:17:26;92634.19;;;7.58;85.54
8294;BME280;4185;41.506;24.938;2023-04-01T06:20:00;92641.56;;;7.63;85.72
8294;BME280;4185;41.506;24.938;2023-04-01T06:25:42;92646.50;;;7.70;86.66
8294;BME280;4185;41.506;24.938;2023-04-01T06:28:36;92644.56;;;7.76;85.66
8294;BME280;4185;41.506;24.938;2023-04-01T06:31:16;92638.91;;;7.85;85.61
8294;BME280;4185;41.506;24.938;2023-04-01T06:33:58;92636.25;;;7.96;85.91
8294;BME280;4185;41.506;24.938;2023-04-01T06:36:50;92629.38;;;8.06;85.20
8294;BME280;4185;41.506;24.938;2023-04-01T06:39:32;92639.47;;;8.16;84.42
8294;BME280;4185;41.506;24.938;2023-04-01T06:42:21;92618.13;;;8.35;84.02
8294;BME280;4185;41.506;24.938;2023-04-01T06:44:57;92617.09;;;8.49;82.78
8294;BME280;4185;41.506;24.938;2023-04-01T06:47:38;92612.91;;;8.70;82.40
8294;BME280;4185;41.506;24.938;2023-04-01T06:50:17;92604.25;;;8.94;81.58
8294;BME280;4185;41.506;24.938;2023-04-01T06:52:50;92599.28;;;9.14;80.42
8294;BME280;4185;41.506;24.938;2023-04-01T06:55:27;92608.06;;;9.37;79.77
8294;BME280;4185;41.506;24.938;2023-04-01T06:57:59;92603.59;;;9.50;79.02
8294;BME280;4185;41.506;24.938;2023-04-01T07:00:31;92609.22;;;9.52;79.87
8294;BME280;4185;41.506;24.938;2023-04-01T07:03:06;92607.50;;;9.55;79.09
8294;BME280;4185;41.506;24.938;2023-04-01T07:05:39;92607.47;;;9.60;78.85
8294;BME280;4185;41.506;24.938;2023-04-01T07:08:10;92605.25;;;9.59;79.18
8294;BME280;4185;41.506;24.938;2023-04-01T07:10:43;92600.56;;;9.59;79.12
8294;BME280;4185;41.506;24.938;2023-04-01T07:13:17;92589.88;;;9.72;78.59
8294;BME280;4185;41.506;24.938;2023-04-01T07:15:57;92582.44;;;9.84;79.20
8294;BME280;4185;41.506;24.938;2023-04-01T07:18:31;92590.28;;;9.93;78.92
8294;BME280;4185;41.506;24.938;2023-04-01T07:21:00;92586.75;;;10.04;77.98
8294;BME280;4185;41.506;24.938;2023-04-01T07:23:31;92580.06;;;10.05;77.81
8294;BME280;4185;41.506;24.938;2023-04-01T07:26:07;92572.91;;;10.07;77.41
8294;BME280;4185;41.506;24.938;2023-04-01T07:28:40;92563.28;;;10.12;77.10
8294;BME280;4185;41.506;24.938;2023-04-01T07:31:16;92547.84;;;10.31;77.07
8294;BME280;4185;41.506;24.938;2023-04-01T07:33:52;92536.59;;;10.45;76.39
8294;BME280;4185;41.506;24.938;2023-04-01T07:36:25;92539.97;;;10.57;75.32
8294;BME280;4185;41.506;24.938;2023-04-01T07:39:08;92537.88;;;10.68;75.60
8294;BME280;4185;41.506;24.938;2023-04-01T07:41:48;92540.84;;;10.70;76.01
8294;BME280;4185;41.506;24.938;2023-04-01T07:44:24;92540.09;;;10.70;75.55
8294;BME280;4185;41.506;24.938;2023-04-01T07:47:08;92530.41;;;10.74;75.57
8294;BME280;4185;41.506;24.938;2023-04-01T07:49:45;92525.16;;;10.82;74.73
8294;BME280;4185;41.506;24.938;2023-04-01T07:52:19;92509.94;;;10.97;74.06
8294;BME280;4185;41.506;24.938;2023-04-01T07:54:53;92500.53;;;11.17;73.40
8294;BME280;4185;41.506;24.938;2023-04-01T07:57:29;92486.31;;;11.30;72.77
8294;BME280;4185;41.506;24.938;2023-04-01T08:00:04;92491.75;;;11.48;72.32
8294;BME280;4185;41.506;24.938;2023-04-01T08:02:48;92495.34;;;11.56;72.01
8294;BME280;4185;41.506;24.938;2023-04-01T08:05:23;92498.66;;;11.68;70.86
8294;BME280;4185;41.506;24.938;2023-04-01T08:07:58;92486.66;;;11.76;71.79
8294;BME280;4185;41.506;24.938;2023-04-01T08:10:36;92489.66;;;11.91;70.55
8294;BME280;4185;41.506;24.938;2023-04-01T08:13:12;92491.06;;;12.11;70.10
8294;BME280;4185;41.506;24.938;2023-04-01T08:15:50;92471.00;;;12.27;69.04
8294;BME280;4185;41.506;24.938;2023-04-01T08:18:31;92479.09;;;12.46;67.50
8294;BME280;4185;41.506;24.938;2023-04-01T08:21:03;92489.63;;;12.68;66.43
8294;BME280;4185;41.506;24.938;2023-04-01T08:23:33;92484.38;;;12.83;66.30
8294;BME280;4185;41.506;24.938;2023-04-01T08:26:08;92487.31;;;13.11;64.99
8294;BME280;4185;41.506;24.938;2023-04-01T08:28:41;92485.22;;;13.30;62.42
8294;BME280;4185;41.506;24.938;2023-04-01T08:31:13;92473.63;;;13.50;60.94
8294;BME280;4185;41.506;24.938;2023-04-01T08:33:42;92470.34;;;13.85;56.93
8294;BME280;4185;41.506;24.938;2023-04-01T08:36:12;92464.22;;;14.26;53.51
8294;BME280;4185;41.506;24.938;2023-04-01T08:38:44;92450.28;;;14.57;52.32
8294;BME280;4185;41.506;24.938;2023-04-01T08:41:34;92449.84;;;14.82;49.98
8294;BME280;4185;41.506;24.938;2023-04-01T08:44:20;92443.44;;;15.07;48.88
8294;BME280;4185;41.506;24.938;2023-04-01T08:50:19;92432.41;;;15.28;49.07
8294;BME280;4185;41.506;24.938;2023-04-01T08:52:53;92429.13;;;15.29;49.34
8294;BME280;4185;41.506;24.938;2023-04-01T08:55:40;92435.03;;;15.41;49.59
8294;BME280;4185;41.506;24.938;2023-04-01T08:58:34;92440.91;;;15.45;48.01
8294;BME280;4185;41.506;24.938;2023-04-01T09:01:17;92426.94;;;15.71;46.44
8294;BME280;4185;41.506;24.938;2023-04-01T09:04:02;92420.03;;;15.77;44.94
8294;BME280;4185;41.506;24.938;2023-04-01T09:06:35;92419.47;;;15.79;44.96
8294;BME280;4185;41.506;24.938;2023-04-01T09:09:41;92412.22;;;16.04;44.61
8294;BME280;4185;41.506;24.938;2023-04-01T09:15:36;92398.88;;;16.38;43.84
8294;BME280;4185;41.506;24.938;2023-04-01T09:18:27;92396.13;;;16.61;44.24
8294;BME280;4185;41.506;24.938;2023-04-01T09:21:11;92391.03;;;16.72;44.70
8294;BME280;4185;41.506;24.938;2023-04-01T09:23:53;92398.50;;;16.72;44.16
8294;BME280;4185;41.506;24.938;2023-04-01T09:26:44;92390.66;;;16.76;45.04
8294;BME280;4185;41.506;24.938;2023-04-01T09:29:26;92394.81;;;16.84;46.04
8294;BME280;4185;41.506;24.938;2023-04-01T09:32:17;92396.31;;;16.70;46.86
8294;BME280;4185;41.506;24.938;2023-04-01T09:34:54;92406.38;;;16.45;47.46
8294;BME280;4185;41.506;24.938;2023-04-01T09:37:51;92406.19;;;16.43;47.40
8294;BME280;4185;41.506;24.938;2023-04-01T09:40:25;92388.31;;;16.57;47.61
8294;BME280;4185;41.506;24.938;2023-04-01T09:43:11;92391.94;;;16.60;47.40
8294;BME280;4185;41.506;24.938;2023-04-01T09:45:47;92401.47;;;16.51;47.92
8294;BME280;4185;41.506;24.938;2023-04-01T09:48:29;92393.75;;;16.72;48.08
8294;BME280;4185;41.506;24.938;2023-04-01T09:51:17;92377.97;;;16.95;47.38
8294;BME280;4185;41.506;24.938;2023-04-01T09:53:59;92383.44;;;17.03;47.56
8294;BME280;4185;41.506;24.938;2023-04-01T10:00:29;92367.69;;;17.11;47.33
8294;BME280;4185;41.506;24.938;2023-04-01T10:03:20;92354.84;;;17.14;46.93
8294;BME280;4185;41.506;24.938;2023-04-01T10:12:31;92338.81;;;17.02;46.84
8294;BME280;4185;41.506;24.938;2023-04-01T10:15:33;92328.78;;;17.37;46.70
8294;BME280;4185;41.506;24.938;2023-04-01T10:21:28;92317.22;;;17.06;48.03
8294;BME280;4185;41.506;24.938;2023-04-01T10:24:39;92335.47;;;17.12;48.36
8294;BME280;4185;41.506;24.938;2023-04-01T10:36:44;92318.69;;;17.40;49.76
8294;BME280;4185;41.506;24.938;2023-04-01T10:42:48;92339.00;;;17.04;50.76
8294;BME280;4185;41.506;24.938;2023-04-01T10:45:46;92334.47;;;16.92;51.01
8294;BME280;4185;41.506;24.938;2023-04-01T10:48:45;92337.13;;;17.15;50.34
8294;BME280;4185;41.506;24.938;2023-04-01T10:51:29;92322.28;;;17.18;49.99
8294;BME280;4185;41.506;24.938;2023-04-01T10:54:31;92327.44;;;17.14;49.85
8294;BME280;4185;41.506;24.938;2023-04-01T10:57:34;92343.19;;;17.13;50.16
8294;BME280;4185;41.506;24.938;2023-04-01T11:00:26;92291.06;;;17.05;49.43
8294;BME280;4185;41.506;24.938;2023-04-01T11:06:36;92323.25;;;17.45;49.01
8294;BME280;4185;41.506;24.938;2023-04-01T11:13:03;92326.34;;;17.49;49.18
8294;BME280;4185;41.506;24.938;2023-04-01T11:16:12;92293.72;;;17.21;50.16
8294;BME280;4185;41.506;24.938;2023-04-01T11:22:19;92270.66;;;17.24;50.71
8294;BME280;4185;41.506;24.938;2023-04-01T11:25:18;92283.03;;;17.08;50.80
8294;BME280;4185;41.506;24.938;2023-04-01T11:31:00;92289.72;;;17.22;51.68
8294;BME280;4185;41.506;24.938;2023-04-01T11:33:34;92274.72;;;17.23;51.38
8294;BME280;4185;41.506;24.938;2023-04-01T11:36:20;92295.91;;;17.22;51.61
8294;BME280;4185;41.506;24.938;2023-04-01T11:39:04;92269.50;;;17.34;51.48
8294;BME280;4185;41.506;24.938;2023-04-01T11:41:40;92246.81;;;17.34;50.69
8294;BME280;4185;41.506;24.938;2023-04-01T11:44:16;92264.28;;;17.53;49.99
8294;BME280;4185;41.506;24.938;2023-04-01T11:46:56;92271.84;;;17.70;49.85
8294;BME280;4185;41.506;24.938;2023-04-01T11:49:40;92264.41;;;17.87;48.94
8294;BME280;4185;41.506;24.938;2023-04-01T11:52:19;92276.66;;;17.86;49.19
8294;BME280;4185;41.506;24.938;2023-04-01T11:55:15;92263.19;;;17.98;48.88
8294;BME280;4185;41.506;24.938;2023-04-01T12:04:10;92245.19;;;18.46;47.57
8294;BME280;4185;41.506;24.938;2023-04-01T12:06:46;92255.25;;;18.09;48.26
8294;BME280;4185;41.506;24.938;2023-04-01T12:09:21;92260.34;;;17.88;48.70
8294;BME280;4185;41.506;24.938;2023-04-01T12:12:00;92234.63;;;18.01;47.79
8294;BME280;4185;41.506;24.938;2023-04-01T12:14:35;92235.66;;;18.05;47.61
8294;BME280;4185;41.506;24.938;2023-04-01T12:17:12;92214.91;;;18.29;47.71
8294;BME280;4185;41.506;24.938;2023-04-01T12:19:52;92226.41;;;18.52;47.92
8294;BME280;4185;41.506;24.938;2023-04-01T12:22:32;92202.72;;;18.40;47.05
8294;BME280;4185;41.506;24.938;2023-04-01T12:25:15;92186.94;;;18.57;46.99
8294;BME280;4185;41.506;24.938;2023-04-01T12:27:53;92196.81;;;18.60;47.21
8294;BME280;4185;41.506;24.938;2023-04-01T12:33:36;92172.72;;;18.34;46.11
8294;BME280;4185;41.506;24.938;2023-04-01T12:36:23;92172.22;;;18.45;46.52
8294;BME280;4185;41.506;24.938;2023-04-01T12:39:15;92172.34;;;18.81;45.60
8294;BME280;4185;41.506;24.938;2023-04-01T12:41:52;92188.41;;;19.11;44.21
8294;BME280;4185;41.506;24.938;2023-04-01T12:44:33;92165.47;;;19.26;44.27
8294;BME280;4185;41.506;24.938;2023-04-01T12:47:18;92167.59;;;19.18;44.06
8294;BME280;4185;41.506;24.938;2023-04-01T12:50:16;92169.69;;;19.00;45.99
8294;BME280;4185;41.506;24.938;2023-04-01T12:52:58;92184.38;;;19.12;46.21
8294;BME280;4185;41.506;24.938;2023-04-01T12:55:43;92206.81;;;19.09;45.74
8294;BME280;4185;41.506;24.938;2023-04-01T13:01:34;92197.13;;;19.34;45.24
8294;BME280;4185;41.506;24.938;2023-04-01T13:10:18;92196.31;;;18.71;48.21
8294;BME280;4185;41.506;24.938;2023-04-01T13:13:18;92176.44;;;18.12;49.94
8294;BME280;4185;41.506;24.938;2023-04-01T13:15:52;92170.28;;;18.04;50.10
8294;BME280;4185;41.506;24.938;2023-04-01T13:18:28;92154.03;;;18.15;49.95
8294;BME280;4185;41.506;24.938;2023-04-01T13:21:05;92168.19;;;18.12;50.46
8294;BME280;4185;41.506;24.938;2023-04-01T13:23:46;92152.56;;;18.92;48.73
8294;BME280;4185;41.506;24.938;2023-04-01T13:26:24;92149.59;;;19.43;47.47
8294;BME280;4185;41.506;24.938;2023-04-01T13:28:59;92137.22;;;19.81;45.43
8294;BME280;4185;41.506;24.938;2023-04-01T13:31:38;92153.94;;;20.11;43.60
8294;BME280;4185;41.506;24.938;2023-04-01T13:34:32;92136.84;;;20.13;43.54
8294;BME280;4185;41.506;24.938;2023-04-01T13:37:13;92141.88;;;19.88;43.62
8294;BME280;4185;41.506;24.938;2023-04-01T13:39:53;92132.28;;;19.70;43.10
8294;BME280;4185;41.506;24.938;2023-04-01T13:42:27;92143.28;;;19.24;43.86
8294;BME280;4185;41.506;24.938;2023-04-01T13:45:00;92143.16;;;19.68;43.16
8294;BME280;4185;41.506;24.938;2023-04-01T13:50:46;92134.63;;;19.83;43.56
8294;BME280;4185;41.506;24.938;2023-04-01T13:53:37;92127.13;;;20.12;42.75
8294;BME280;4185;41.506;24.938;2023-04-01T13:56:17;92128.31;;;20.37;42.28
8294;BME280;4185;41.506;24.938;2023-04-01T14:02:07;92132.97;;;20.25;42.81
8294;BME280;4185;41.506;24.938;2023-04-01T14:04:53;92139.16;;;19.97;42.95
8294;BME280;4185;41.506;24.938;2023-04-01T14:07:45;92125.50;;;19.99;42.60
8294;BME280;4185;41.506;24.938;2023-04-01T14:10:25;92141.06;;;20.52;41.76
8294;BME280;4185;41.506;24.938;2023-04-01T14:13:00;92127.06;;;20.88;41.66
8294;BME280;4185;41.506;24.938;2023-04-01T14:15:51;92123.94;;;20.63;41.65
8294;BME280;4185;41.506;24.938;2023-04-01T14:18:33;92112.34;;;20.07;42.70
8294;BME280;4185;41.506;24.938;2023-04-01T14:21:29;92113.13;;;19.53;43.40
8294;BME280;4185;41.506;24.938;2023-04-01T14:24:14;92102.75;;;19.99;42.73
8294;BME280;4185;41.506;24.938;2023-04-01T14:27:09;92106.56;;;19.38;43.94
8294;BME280;4185;41.506;24.938;2023-04-01T14:29:46;92107.34;;;18.86;44.61
8294;BME280;4185;41.506;24.938;2023-04-01T14:32:23;92107.22;;;18.40;46.13
8294;BME280;4185;41.506;24.938;2023-04-01T14:35:12;92113.16;;;18.02;46.87
8294;BME280;4185;41.506;24.938;2023-04-01T14:38:04;92103.56;;;17.94;47.85
8294;BME280;4185;41.506;24.938;2023-04-01T14:40:48;92117.59;;;17.81;48.50
8294;BME280;4185;41.506;24.938;2023-04-01T14:43:54;92111.69;;;17.50;50.22
8294;BME280;4185;41.506;24.938;2023-04-01T14:49:32;92125.88;;;17.15;51.01
8294;BME280;4185;41.506;24.938;2023-04-01T14:52:10;92119.69;;;17.06;52.59
8294;BME280;4185;41.506;24.938;2023-04-01T14:54:41;92126.59;;;16.90;53.45
8294;BME280;4185;41.506;24.938;2023-04-01T14:57:12;92119.59;;;16.72;53.96
8294;BME280;4185;41.506;24.938;2023-04-01T14:59:40;92124.41;;;16.57;55.10
8294;BME280;4185;41.506;24.938;2023-04-01T15:02:18;92133.19;;;16.55;56.49
8294;BME280;4185;41.506;24.938;2023-04-01T15:04:58;92145.09;;;16.50;56.87
8294;BME280;4185;41.506;24.938;2023-04-01T15:07:52;92147.50;;;16.46;57.47
8294;BME280;4185;41.506;24.938;2023-04-01T15:10:48;92164.84;;;16.41;57.85
8294;BME280;4185;41.506;24.938;2023-04-01T15:13:24;92204.00;;;16.27;61.81
8294;BME280;4185;41.506;24.938;2023-04-01T15:16:04;92226.94;;;15.69;64.26
8294;BME280;4185;41.506;24.938;2023-04-01T15:18:44;92217.41;;;15.25;66.17
8294;BME280;4185;41.506;24.938;2023-04-01T15:21:19;92242.38;;;15.14;69.56
8294;BME280;4185;41.506;24.938;2023-04-01T15:23:57;92250.03;;;15.08;69.83